createdAt,value
2018-04-01T00:00:25.754Z,0.70
2018-04-01T00:02:52.639Z,0.70
2018-04-01T00:05:19.564Z,0.60
2018-04-01T00:07:46.442Z,1.70
2018-04-01T00:10:13.362Z,0.80
2018-04-01T00:12:40.331Z,0.50
2018-04-01T00:15:07.220Z,0.85
2018-04-01T00:17:34.118Z,0.60
2018-04-01T00:20:01.001Z,0.88
2018-04-01T00:22:27.907Z,0.80
2018-04-01T00:24:54.791Z,0.70
2018-04-01T00:27:21.718Z,1.02
2018-04-01T00:29:48.636Z,0.60
2018-04-01T00:32:15.538Z,0.90
2018-04-01T00:34:42.427Z,0.70
2018-04-01T00:37:09.344Z,0.60
2018-04-01T00:39:36.240Z,0.68
2018-04-01T00:42:03.163Z,0.80
2018-04-01T00:44:30.114Z,0.73
2018-04-01T00:46:57.034Z,0.60
2018-04-01T00:51:57.190Z,0.80
2018-04-01T00:54:24.443Z,0.70
2018-04-01T00:56:51.322Z,0.90
2018-04-01T00:59:18.225Z,0.82
2018-04-01T01:01:45.134Z,0.80
2018-04-01T01:04:12.071Z,0.60
2018-04-01T01:06:38.966Z,0.88
2018-04-01T01:09:05.804Z,0.60
2018-04-01T02:03:03.449Z,1.33
2018-04-01T02:05:30.360Z,0.85
2018-04-01T02:07:57.212Z,1.65
2018-04-01T02:10:24.121Z,1.15
2018-04-01T02:12:50.968Z,0.90
2018-04-01T02:15:17.870Z,1.00
2018-04-01T02:17:44.745Z,0.70
2018-04-01T02:20:11.665Z,0.70
2018-04-01T02:22:38.551Z,0.95
2018-04-01T02:25:05.483Z,1.10
2018-04-01T02:27:32.398Z,1.05
2018-04-01T02:29:59.296Z,1.05
2018-04-01T02:32:26.184Z,1.10
2018-04-01T02:34:53.104Z,1.00
2018-04-01T02:37:20.017Z,0.80
2018-04-01T02:39:46.905Z,0.80
2018-04-01T02:42:13.674Z,0.90
2018-04-01T02:44:40.570Z,1.10
2018-04-01T02:47:07.461Z,1.08
2018-04-01T02:49:34.356Z,0.98
2018-04-01T02:52:01.247Z,1.02
2018-04-01T02:54:28.102Z,1.35
2018-04-01T02:56:54.988Z,0.90
2018-04-01T02:59:21.931Z,1.37
2018-04-01T03:01:48.868Z,0.90
2018-04-01T03:04:15.787Z,1.17
2018-04-01T03:06:42.673Z,1.20
2018-04-01T03:09:09.540Z,1.48
2018-04-01T03:11:36.489Z,2.25
2018-04-01T03:14:03.375Z,1.87
2018-04-01T03:16:30.351Z,1.65
2018-04-01T03:18:57.242Z,1.17
2018-04-01T03:21:24.097Z,1.37
2018-04-01T03:23:51.027Z,1.27
2018-04-01T03:26:17.892Z,1.30
2018-04-01T03:28:45.025Z,1.20
2018-04-01T03:31:11.893Z,0.95
2018-04-01T03:33:38.787Z,1.20
2018-04-01T03:36:05.695Z,1.42
2018-04-01T03:38:32.622Z,0.95
2018-04-01T03:40:59.493Z,1.05
2018-04-01T03:43:26.377Z,1.27
2018-04-01T03:45:53.291Z,0.82
2018-04-01T03:48:20.128Z,1.20
2018-04-01T03:50:49.996Z,1.50
2018-04-01T03:53:16.884Z,1.10
2018-04-01T03:55:43.738Z,1.05
2018-04-01T03:58:10.661Z,1.10
2018-04-01T04:00:37.519Z,1.08
2018-04-01T04:03:04.425Z,1.80
2018-04-01T04:05:31.289Z,0.90
2018-04-01T04:07:58.140Z,0.90
2018-04-01T04:10:25.095Z,0.85
2018-04-01T04:12:52.039Z,1.73
2018-04-01T04:15:18.923Z,1.08
2018-04-01T04:17:45.836Z,0.88
2018-04-01T04:20:12.721Z,1.52
2018-04-01T04:22:39.609Z,0.80
2018-04-01T04:25:06.685Z,1.00
2018-04-01T04:27:33.546Z,0.90
2018-04-01T04:30:00.440Z,1.00
2018-04-01T04:32:27.539Z,1.25
2018-04-01T04:34:54.427Z,0.80
2018-04-01T04:37:24.426Z,1.58
2018-04-01T04:39:51.313Z,1.62
2018-04-01T04:42:18.959Z,1.00
2018-04-01T04:44:45.820Z,1.10
2018-04-01T04:47:12.709Z,1.33
2018-04-01T04:49:39.593Z,1.10
2018-04-01T04:52:06.466Z,1.23
2018-04-01T04:54:33.319Z,1.65
2018-04-01T04:57:00.222Z,1.50
2018-04-01T04:59:27.105Z,1.30
2018-04-01T05:01:54.043Z,1.50
2018-04-01T05:04:20.889Z,1.55
2018-04-01T05:06:47.818Z,1.02
2018-04-01T05:09:14.764Z,1.10
2018-04-01T05:11:41.618Z,1.10
2018-04-01T05:14:08.697Z,1.42
2018-04-01T05:16:35.948Z,1.35
2018-04-01T05:19:02.967Z,1.30
2018-04-01T05:21:32.788Z,1.67
2018-04-01T05:23:59.706Z,1.42
2018-04-01T05:26:26.612Z,1.50
2018-04-01T05:28:53.609Z,1.27
2018-04-01T05:31:20.496Z,2.10
2018-04-01T05:33:47.422Z,1.00
2018-04-01T05:36:14.307Z,1.08
2018-04-01T05:38:44.205Z,1.65
2018-04-01T05:41:11.068Z,1.10
2018-04-01T05:43:37.967Z,1.45
2018-04-01T05:46:04.843Z,1.48
2018-04-01T05:48:31.718Z,1.50
2018-04-01T05:53:30.793Z,1.12
2018-04-01T05:55:57.711Z,0.95
2018-04-01T05:58:27.732Z,0.80
2018-04-01T06:00:54.668Z,1.35
2018-04-01T06:03:21.590Z,1.35
2018-04-01T06:05:48.529Z,2.22
2018-04-01T06:08:15.401Z,0.90
2018-04-01T06:10:42.300Z,1.40
2018-04-01T06:13:09.152Z,1.30
2018-04-01T06:15:35.995Z,1.20
2018-04-01T06:18:02.885Z,1.55
2018-04-01T06:20:29.771Z,1.85
2018-04-01T06:22:59.637Z,1.20
2018-04-01T06:25:26.517Z,1.90
2018-04-01T06:27:53.486Z,1.15
2018-04-01T06:30:20.328Z,1.40
2018-04-01T06:32:47.217Z,2.25
2018-04-01T06:35:14.116Z,1.23
2018-04-01T06:37:40.983Z,1.70
2018-04-01T06:40:10.860Z,1.45
2018-04-01T06:42:37.707Z,0.85
2018-04-01T06:45:04.661Z,1.30
2018-04-01T06:47:31.548Z,1.58
2018-04-01T06:49:58.470Z,1.15
2018-04-01T06:52:25.405Z,1.60
2018-04-01T06:54:52.325Z,1.30
2018-04-01T06:57:19.257Z,1.30
2018-04-01T06:59:52.000Z,1.20
2018-04-01T07:02:18.902Z,0.90
2018-04-01T07:04:45.862Z,2.05
2018-04-01T07:07:12.955Z,1.15
2018-04-01T07:09:39.894Z,1.40
2018-04-01T07:12:06.767Z,1.52
2018-04-01T07:14:33.654Z,1.40
2018-04-01T07:17:00.535Z,1.17
2018-04-01T07:19:27.430Z,2.15
2018-04-01T07:21:54.364Z,1.40
2018-04-01T07:24:21.294Z,1.20
2018-04-01T07:26:51.338Z,1.20
2018-04-01T07:29:18.236Z,1.30
2018-04-01T07:31:45.123Z,1.50
2018-04-01T07:34:12.044Z,2.08
2018-04-01T07:36:38.925Z,1.58
2018-04-01T07:39:05.793Z,1.30
2018-04-01T07:41:32.670Z,1.60
2018-04-01T07:43:59.552Z,1.35
2018-04-01T07:46:26.483Z,1.20
2018-04-01T07:48:53.420Z,1.42
2018-04-01T07:51:20.303Z,1.45
2018-04-01T07:53:47.204Z,1.10
2018-04-01T07:56:14.085Z,1.75
2018-04-01T07:58:40.968Z,1.30
2018-04-01T08:01:08.026Z,1.65
2018-04-01T08:03:34.977Z,1.17
2018-04-01T08:06:01.921Z,1.25
2018-04-01T08:11:21.501Z,1.98
2018-04-01T08:13:48.397Z,1.62
2018-04-01T08:16:38.937Z,1.95
2018-04-01T08:19:05.967Z,1.60
2018-04-01T08:21:33.021Z,1.40
2018-04-01T08:23:59.895Z,1.62
2018-04-01T08:26:26.768Z,1.62
2018-04-01T08:28:53.668Z,1.20
2018-04-01T08:31:20.525Z,2.15
2018-04-01T08:33:47.380Z,1.10
2018-04-01T08:36:14.315Z,1.30
2018-04-01T08:38:41.206Z,1.25
2018-04-01T08:41:08.064Z,1.20
2018-04-01T08:43:34.944Z,1.70
2018-04-01T08:46:01.885Z,2.08
2018-04-01T08:48:28.829Z,1.35
2018-04-01T08:50:55.688Z,2.03
2018-04-01T08:53:22.574Z,2.08
2018-04-01T08:55:49.513Z,1.65
2018-04-01T08:58:16.404Z,1.30
2018-04-01T09:00:43.302Z,1.37
2018-04-01T09:03:10.487Z,1.33
2018-04-01T09:05:37.373Z,1.75
2018-04-01T09:08:04.281Z,1.48
2018-04-01T09:10:31.211Z,1.45
2018-04-01T09:12:58.176Z,1.85
2018-04-01T09:15:25.056Z,1.65
2018-04-01T09:17:51.967Z,1.40
2018-04-01T09:20:18.845Z,1.62
2018-04-01T09:22:45.728Z,2.28
2018-04-01T09:25:12.632Z,1.50
2018-04-01T09:27:39.543Z,1.48
2018-04-01T09:30:06.476Z,1.30
2018-04-01T09:32:33.410Z,1.30
2018-04-01T09:35:00.271Z,1.40
2018-04-01T09:37:27.119Z,1.50
2018-04-01T09:39:54.020Z,1.30
2018-04-01T09:42:20.920Z,1.40
2018-04-01T09:44:47.906Z,1.50
2018-04-01T09:47:14.831Z,1.23
2018-04-01T09:49:41.721Z,1.17
2018-04-01T09:52:08.585Z,1.70
2018-04-01T09:54:35.436Z,1.70
2018-04-01T09:57:02.292Z,1.42
2018-04-01T09:59:43.670Z,1.42
2018-04-01T10:02:11.127Z,1.60
2018-04-01T10:04:38.735Z,1.50
2018-04-01T10:07:06.170Z,1.60
2018-04-01T10:09:34.137Z,2.25
2018-04-01T10:12:01.553Z,2.40
2018-04-01T10:14:28.959Z,1.20
2018-04-01T10:16:56.358Z,1.98
2018-04-01T10:19:25.042Z,1.67
2018-04-01T10:21:52.512Z,1.25
2018-04-01T10:24:20.867Z,1.05
2018-04-01T10:26:48.307Z,1.10
2018-04-01T10:29:15.763Z,1.50
2018-04-01T10:31:43.186Z,1.62
2018-04-01T10:34:10.667Z,1.40
2018-04-01T10:36:38.088Z,1.87
2018-04-01T10:39:05.549Z,1.70
2018-04-01T10:41:32.943Z,1.27
2018-04-01T10:44:00.410Z,1.85
2018-04-01T10:46:27.824Z,1.90
2018-04-01T10:48:55.344Z,1.67
2018-04-01T10:51:22.818Z,1.35
2018-04-01T10:53:56.872Z,1.55
2018-04-01T10:56:24.529Z,2.15
2018-04-01T10:58:51.402Z,1.35
2018-04-01T11:01:18.354Z,1.75
2018-04-01T11:03:45.282Z,1.55
2018-04-01T11:06:12.187Z,1.10
2018-04-01T11:08:39.074Z,1.65
2018-04-01T11:11:06.340Z,2.58
2018-04-01T11:13:33.232Z,1.30
2018-04-01T11:16:00.178Z,1.20
2018-04-01T11:18:27.061Z,1.25
2018-04-01T11:20:54.115Z,1.75
2018-04-01T11:23:21.004Z,1.30
2018-04-01T11:28:40.816Z,1.52
2018-04-01T11:31:07.751Z,1.80
2018-04-01T11:33:34.731Z,1.20
2018-04-01T11:36:01.655Z,2.28
2018-04-01T11:38:28.515Z,1.50
2018-04-01T11:40:55.418Z,1.65
2018-04-01T11:43:22.404Z,1.40
2018-04-01T11:45:49.309Z,1.20
2018-04-01T11:48:16.205Z,1.35
2018-04-01T11:50:43.066Z,1.30
2018-04-01T11:53:10.007Z,1.12
2018-04-01T11:55:36.864Z,1.27
2018-04-01T11:58:03.736Z,0.95
2018-04-01T12:00:30.606Z,1.60
2018-04-01T12:02:57.476Z,1.52
2018-04-01T12:05:24.361Z,1.30
2018-04-01T12:07:51.204Z,1.17
2018-04-01T12:10:18.092Z,1.05
2018-04-01T12:12:44.974Z,1.50
2018-04-01T12:15:11.871Z,0.80
2018-04-01T12:17:38.734Z,2.00
2018-04-01T12:20:05.684Z,1.70
2018-04-01T12:22:32.536Z,1.40
2018-04-01T12:24:59.502Z,2.00
2018-04-01T12:27:26.380Z,1.35
2018-04-01T12:29:53.245Z,1.60
2018-04-01T12:32:20.094Z,1.35
2018-04-01T12:34:46.983Z,1.98
2018-04-01T12:37:13.868Z,1.67
2018-04-01T12:39:41.099Z,1.50
2018-04-01T12:42:07.960Z,1.27
2018-04-01T12:44:34.838Z,1.30
2018-04-01T12:47:01.757Z,1.70
2018-04-01T12:49:28.757Z,1.00
2018-04-01T12:51:55.644Z,1.58
2018-04-01T12:54:22.525Z,1.90
2018-04-01T12:56:49.506Z,1.17
2018-04-01T12:59:16.721Z,1.37
2018-04-01T13:01:43.664Z,1.50
2018-04-01T13:04:10.542Z,1.55
2018-04-01T13:06:37.493Z,1.40
2018-04-01T13:09:04.403Z,1.50
2018-04-01T13:11:31.306Z,1.48
2018-04-01T13:13:58.218Z,1.20
2018-04-01T13:16:25.056Z,1.23
2018-04-01T13:18:51.986Z,1.85
2018-04-01T13:21:18.892Z,0.80
2018-04-01T13:23:45.750Z,1.58
2018-04-01T13:26:12.607Z,1.92
2018-04-01T13:28:39.694Z,1.10
2018-04-01T13:31:06.595Z,1.40
2018-04-01T13:33:33.520Z,1.80
2018-04-01T13:36:00.444Z,1.08
2018-04-01T13:38:27.382Z,1.85
2018-04-01T13:40:54.251Z,1.45
2018-04-01T13:43:21.239Z,1.00
2018-04-01T13:45:48.108Z,1.50
2018-04-01T13:48:15.032Z,1.73
2018-04-01T13:50:41.950Z,1.60
2018-04-01T13:53:09.024Z,1.73
2018-04-01T13:55:35.956Z,1.23
2018-04-01T13:58:03.056Z,1.00
2018-04-01T14:00:29.942Z,1.02
2018-04-01T14:02:56.905Z,1.20
2018-04-01T14:05:23.820Z,1.30
2018-04-01T14:07:50.746Z,1.33
2018-04-01T14:10:17.695Z,1.62
2018-04-01T14:12:44.676Z,1.30
2018-04-01T14:15:11.925Z,1.60
2018-04-01T14:17:38.870Z,2.65
2018-04-01T14:20:05.887Z,1.40
2018-04-01T14:22:32.780Z,1.15
2018-04-01T14:24:59.633Z,1.10
2018-04-01T14:27:26.530Z,1.30
2018-04-01T14:29:53.453Z,1.15
2018-04-01T14:32:21.100Z,1.62
2018-04-01T14:34:47.963Z,1.48
2018-04-01T14:37:14.850Z,2.33
2018-04-01T14:39:41.752Z,1.80
2018-04-01T14:42:08.605Z,1.67
2018-04-01T14:44:35.545Z,1.10
2018-04-01T14:47:02.445Z,0.98
2018-04-01T14:49:29.392Z,1.27
2018-04-01T14:51:56.265Z,1.02
2018-04-01T14:54:23.197Z,1.52
2018-04-01T14:56:50.101Z,1.05
2018-04-01T14:59:16.985Z,1.60
2018-04-01T15:01:43.912Z,1.55
2018-04-01T15:04:10.804Z,0.90
2018-04-01T15:06:37.709Z,1.40
2018-04-01T15:09:04.648Z,1.12
2018-04-01T15:11:31.521Z,1.20
2018-04-01T15:13:58.430Z,1.20
2018-04-01T15:16:25.325Z,1.70
2018-04-01T15:18:52.242Z,1.33
2018-04-01T15:21:19.091Z,1.35
2018-04-01T15:23:46.034Z,1.02
2018-04-01T15:26:12.953Z,1.15
2018-04-01T15:28:39.904Z,1.12
2018-04-01T15:31:06.827Z,0.90
2018-04-01T15:33:33.706Z,2.17
2018-04-01T15:36:00.642Z,1.08
2018-04-01T15:38:27.584Z,2.03
2018-04-01T15:40:54.486Z,1.40
2018-04-01T15:43:21.361Z,1.15
2018-04-01T15:45:48.306Z,1.20
2018-04-01T15:48:15.155Z,1.17
2018-04-01T15:50:42.506Z,1.05
2018-04-01T15:53:09.384Z,1.02
2018-04-01T15:55:36.312Z,1.55
2018-04-01T15:58:03.257Z,0.98
2018-04-01T16:00:30.177Z,0.90
2018-04-01T16:02:57.248Z,1.30
2018-04-01T16:05:24.141Z,1.37
2018-04-01T16:07:51.075Z,1.00
2018-04-01T16:10:17.939Z,1.00
2018-04-01T16:12:44.832Z,1.30
2018-04-01T16:15:11.714Z,1.17
2018-04-01T16:17:38.656Z,1.20
2018-04-01T16:20:05.573Z,1.33
2018-04-01T16:22:32.470Z,1.20
2018-04-01T16:24:59.395Z,1.23
2018-04-01T16:27:26.280Z,1.45
2018-04-01T16:29:53.156Z,1.10
2018-04-01T16:32:20.101Z,1.33
2018-04-01T16:34:46.957Z,0.90
2018-04-01T16:37:13.855Z,1.33
2018-04-01T16:39:40.781Z,1.25
2018-04-01T16:42:07.626Z,1.12
2018-04-01T16:44:34.542Z,1.42
2018-04-01T16:47:01.446Z,1.10
2018-04-01T16:49:28.390Z,1.70
2018-04-01T16:51:55.317Z,2.05
2018-04-01T16:54:22.223Z,1.67
2018-04-01T16:56:49.165Z,1.20
2018-04-01T16:59:16.041Z,0.90
2018-04-01T17:01:42.927Z,0.88
2018-04-01T17:04:09.871Z,1.23
2018-04-01T17:06:36.792Z,1.30
2018-04-01T17:09:03.693Z,1.00
2018-04-01T17:11:30.540Z,1.00
2018-04-01T17:13:57.405Z,0.90
2018-04-01T17:16:24.264Z,1.00
2018-04-01T17:18:51.177Z,1.10
2018-04-01T17:21:18.077Z,1.00
2018-04-01T17:23:44.982Z,1.35
2018-04-01T17:26:11.936Z,2.22
2018-04-01T17:28:38.832Z,1.12
2018-04-01T17:31:05.713Z,1.40
2018-04-01T17:33:32.611Z,1.00
2018-04-01T17:35:59.556Z,1.02
2018-04-01T17:38:26.409Z,1.87
2018-04-01T17:40:53.356Z,1.00
2018-04-01T17:43:20.263Z,1.42
2018-04-01T17:45:47.150Z,1.48
2018-04-01T17:48:14.296Z,2.53
2018-04-01T17:50:41.197Z,1.77
2018-04-01T17:53:08.060Z,1.40
2018-04-01T17:55:34.915Z,0.90
2018-04-01T17:58:01.798Z,1.12
2018-04-01T18:00:28.676Z,1.15
2018-04-01T18:02:55.655Z,1.40
2018-04-01T18:05:22.576Z,1.17
2018-04-01T18:07:49.426Z,1.33
2018-04-01T18:10:16.291Z,1.52
2018-04-01T18:12:43.228Z,1.65
2018-04-01T18:15:10.129Z,1.62
2018-04-01T18:17:37.045Z,1.70
2018-04-01T18:20:03.946Z,1.90
2018-04-01T18:22:30.860Z,1.58
2018-04-01T18:24:57.770Z,1.17
2018-04-01T18:27:24.661Z,1.17
2018-04-01T18:29:51.554Z,1.35
2018-04-01T18:32:18.487Z,2.08
2018-04-01T18:34:45.385Z,1.48
2018-04-01T18:37:12.275Z,1.80
2018-04-01T18:39:39.191Z,1.37
2018-04-01T18:42:06.069Z,1.35
2018-04-01T18:44:32.954Z,1.83
2018-04-01T18:46:59.852Z,1.55
2018-04-01T18:49:26.788Z,1.55
2018-04-01T18:51:53.676Z,1.48
2018-04-01T18:54:20.579Z,1.10
2018-04-01T18:56:47.447Z,1.65
2018-04-01T18:59:14.738Z,2.15
2018-04-01T19:01:41.665Z,1.45
2018-04-01T19:04:08.562Z,2.25
2018-04-01T19:06:35.427Z,1.58
2018-04-01T19:09:02.309Z,1.85
2018-04-01T19:11:29.618Z,1.35
2018-04-01T19:13:56.486Z,1.75
2018-04-01T19:16:23.974Z,1.95
2018-04-01T19:18:51.398Z,1.33
2018-04-01T19:21:18.832Z,3.95
2018-04-01T19:23:46.257Z,3.20
2018-04-01T19:26:13.972Z,1.17
2018-04-01T19:28:41.823Z,1.58
2018-04-01T19:31:09.300Z,1.73
2018-04-01T19:33:36.696Z,2.05
2018-04-01T19:36:04.128Z,1.77
2018-04-01T19:38:31.538Z,3.25
2018-04-01T19:40:58.958Z,2.45
2018-04-01T19:43:26.441Z,1.75
2018-04-01T19:45:53.905Z,1.75
2018-04-01T19:48:21.339Z,3.33
2018-04-01T19:50:48.724Z,1.58
2018-04-01T19:53:16.294Z,1.45
2018-04-01T19:55:43.755Z,2.37
2018-04-01T19:58:11.154Z,1.77
2018-04-01T20:00:38.557Z,1.95
2018-04-01T20:03:05.997Z,1.60
2018-04-01T20:05:33.483Z,1.87
2018-04-01T20:08:00.878Z,2.10
2018-04-01T20:10:28.301Z,2.00
2018-04-01T20:12:55.689Z,2.40
2018-04-01T20:15:23.084Z,1.90
2018-04-01T20:17:50.555Z,2.00
2018-04-01T20:20:18.146Z,1.77
2018-04-01T20:22:45.521Z,1.70
2018-04-01T20:25:12.989Z,2.55
2018-04-01T20:27:40.450Z,2.22
2018-04-01T20:30:07.898Z,2.03
2018-04-01T20:32:35.358Z,1.80
2018-04-01T20:35:03.184Z,1.75
2018-04-01T20:37:30.600Z,2.10
2018-04-01T20:39:58.003Z,2.15
2018-04-01T20:42:25.463Z,2.53
2018-04-01T20:44:53.226Z,2.70
2018-04-01T20:47:21.184Z,2.95
2018-04-01T20:49:48.576Z,2.42
2018-04-01T20:52:16.005Z,1.60
2018-04-01T20:54:43.471Z,2.40
2018-04-01T20:57:10.972Z,2.83
2018-04-01T20:59:38.396Z,1.58
2018-04-01T21:02:06.838Z,2.05
2018-04-01T21:04:34.260Z,2.65
2018-04-01T21:07:01.716Z,1.80
2018-04-01T21:09:29.192Z,1.75
2018-04-01T21:11:56.585Z,2.55
2018-04-01T21:14:24.018Z,2.55
2018-04-01T21:16:51.431Z,2.83
2018-04-01T21:19:18.908Z,2.90
2018-04-01T21:21:46.366Z,2.90
2018-04-01T21:24:13.813Z,4.53
2018-04-01T21:26:41.277Z,2.92
2018-04-01T21:29:08.822Z,4.05
2018-04-01T21:31:36.253Z,3.40
2018-04-01T21:34:03.693Z,3.65
2018-04-01T21:36:31.123Z,3.58
2018-04-01T21:38:58.516Z,2.67
2018-04-01T21:41:25.938Z,2.40
2018-04-01T21:43:53.403Z,2.55
2018-04-01T21:46:21.431Z,4.05
2018-04-01T21:48:48.828Z,3.47
2018-04-01T21:51:16.485Z,3.25
2018-04-01T21:53:43.902Z,3.42
2018-04-01T21:56:11.426Z,4.40
2018-04-01T21:58:38.852Z,3.22
2018-04-01T22:01:06.313Z,3.03
2018-04-01T22:03:33.735Z,3.35
2018-04-01T22:06:01.161Z,2.80
2018-04-01T22:08:28.577Z,3.40
2018-04-01T22:10:56.051Z,3.58
2018-04-01T22:13:23.524Z,4.03
2018-04-01T22:15:51.755Z,5.00
2018-04-01T22:18:19.140Z,3.50
2018-04-01T22:20:46.561Z,2.58
2018-04-01T22:23:13.995Z,2.80
2018-04-01T22:25:41.412Z,3.92
2018-04-01T22:28:08.886Z,3.17
2018-04-01T22:30:36.317Z,2.60
2018-04-01T22:33:03.728Z,3.95
2018-04-01T22:35:31.156Z,3.72
2018-04-01T22:37:58.564Z,3.22
2018-04-01T22:40:25.979Z,2.97
2018-04-01T22:42:53.412Z,2.70
2018-04-01T22:45:21.637Z,3.30
2018-04-01T22:47:49.027Z,3.03
2018-04-01T22:50:16.473Z,4.00
2018-04-01T22:52:43.878Z,2.25
2018-04-01T22:55:11.500Z,3.37
2018-04-01T22:57:38.971Z,3.10
2018-04-01T23:00:06.502Z,3.60
2018-04-01T23:02:33.885Z,4.00
2018-04-01T23:05:01.328Z,3.40
2018-04-01T23:07:28.799Z,2.90
2018-04-01T23:09:56.224Z,3.40
2018-04-01T23:12:23.658Z,3.80
2018-04-01T23:14:51.536Z,3.90
2018-04-01T23:17:19.042Z,4.20
2018-04-01T23:19:46.453Z,4.03
2018-04-01T23:22:13.930Z,4.15
2018-04-01T23:24:41.377Z,3.28
2018-04-01T23:27:08.788Z,3.50
2018-04-01T23:29:36.175Z,4.40
2018-04-01T23:32:03.990Z,3.65
2018-04-01T23:34:32.161Z,3.58
2018-04-01T23:36:59.581Z,5.28
2018-04-01T23:39:26.969Z,3.05
2018-04-01T23:41:54.367Z,3.50
2018-04-01T23:44:21.822Z,3.58
2018-04-01T23:46:49.250Z,4.28
2018-04-01T23:49:16.677Z,3.33
2018-04-01T23:51:44.193Z,3.12
2018-04-01T23:54:11.666Z,2.65
2018-04-01T23:56:39.113Z,3.33
2018-04-01T23:59:06.562Z,3.67
